Delta A321 at Atlanta on Feb 6th 2022, runway excursion after landing

Last Update: February 7, 2022 / 20:52:30 GMT/Zulu time

Bookmark this article
Incident Facts

Date of incident
Feb 6, 2022

Classification
Incident

Flight number
DL-1277

Aircraft Registration
N129DN

Aircraft Type
Airbus A321

ICAO Type Designator
A321

Airport ICAO Code
KATL

A Delta Airlines Airbus A321-200, registration N129DN performing flight DL-1277 from Dallas Ft. Worth,TX to Atlanta,GA (USA), landed on Atlanta's runway 09R at about 15:41L (20:41Z) when another aircraft waiting for departure on runway 09L advised tower they had a problem on 09R, an aircraft had gone off the runway and was on the grass. A short time later the crew of DL-1277 requested the trucks to attend to them at taxiway R near R6. The runway was closed for some time, tower sent all aircraft on final approach to runway 09R into a go around following the info by the crew of another aircraft.

The FAA reported the aircraft ended up in the grass. All passengers were off the aircraft about 2:40 hours after landing.

The airline reported the aircraft suffered a blown tyre and came to a stop on the taxiway.

Passengers reported both right hand main tyres were flat.

On Feb 7th 2022 the FAA wrote: "AIRCRAFT LANDED AND BLEW A TIRE AND VEERED OFF THE RUNWAY INTO THE GRASS STRIKING SEVERAL RUNWAY SIGNS, ATLANTA, GA."

Related NOTAM:
!ATL 02/104 ATL RWY 09R/27L CLSD 2202062129-2202062300EST

Metars:
KATL 062152Z 09008KT 10SM SCT035 10/M04 A3024 RMK AO2 SLP246 T01001039=
KATL 062052Z 07009KT 10SM FEW037 11/M05 A3027 RMK AO2 SLP255 T01061050 56024=
KATL 061952Z 11003KT 10SM BKN038 09/M06 A3028 RMK AO2 SLP261 T00941061=
KATL 061852Z 08004KT 10SM FEW035 09/M07 A3030 RMK AO2 SLP267 T00891067=
KATL 061752Z 06007KT 10SM FEW035 08/M07 A3034 RMK AO2 SLP280 T00781072 10078 21006 58015=
KATL 061652Z 07011KT 10SM CLR 07/M07 A3037 RMK AO2 SLP290 T00671072=
Aircraft Registration Data
Registration mark
N129DN
Country of Registration
United States
Date of Registration
MdAljkikfkqjlpmmd Subscribe to unlock
TCDS Ident. No.
Manufacturer
AIRBUS
Aircraft Model / Type
A321-211
Number of Seats
ICAO Aircraft Type
A321
Year of Manufacture
Serial Number
Aircraft Address / Mode S Code (HEX)
Engine Count
Engine Manufacturer
Engine Model
Engine Type
Pounds of Thrust
Main Owner
Ilgqce lkddegemdicdljnmAfchb jkfbdgejkqddAinqgkhl gAfkkcc pfA qepddlllqqjgqqfbemdnkedlhkmpkcqbhfnkhjn cnbfjjmhcf Subscribe to unlock
Incident Facts

Date of incident
Feb 6, 2022

Classification
Incident

Flight number
DL-1277

Aircraft Registration
N129DN

Aircraft Type
Airbus A321

ICAO Type Designator
A321

Airport ICAO Code
KATL

This article is published under license from Avherald.com. © of text by Avherald.com.
Article source

You can read 2 more free articles without a subscription.

Subscribe now and continue reading without any limits!

Are you a subscriber? Login
Subscribe

Read unlimited articles and receive our daily update briefing. Gain better insights into what is happening in commercial aviation safety.

Free newsletter

Want to know more and stay ahead? Get our free weekly newsletter and join 5384 existing subscribers.

By subscribing, you accept our terms and conditions and confirm that you've read our privacy policy.

Send tip

Support AeroInside by sending a small tip amount.

Related articles

Newest articles

Subscribe today

Are you researching aviation incidents? Get access to AeroInside Insights, unlimited read access and receive the daily newsletter.

Pick your plan and subscribe

Partner

Blockaviation logo

A new way to document and demonstrate airworthiness compliance and aircraft value. Find out more.

Virtual Speech logo

ELITE Simulation Solutions is a leading global provider of Flight Simulation Training Devices, IFR training software as well as flight controls and related services. Find out more.

Get updates

Never miss an article from AeroInside. Subscribe to our free weekly newsletter and join 5384 existing subscribers.

By subscribing, you accept our terms and conditions and that you've read our privacy policy.

AeroInside Blog
Popular aircraft
Airbus A320
Boeing 737-800
Boeing 737-800 MAX
Popular airlines
American Airlines
United
Delta
Air Canada
Lufthansa
British Airways